sensor_id;sensor_type;location;lat;lon;timestamp;P1;durP1;ratioP1;P2;durP2;ratioP2
13611;SDS011;6877;51.436;6.774;2022-09-09T16:20:59;6.00;;;1.70;;
13611;SDS011;6877;51.436;6.774;2022-09-09T16:28:43;1.55;;;1.40;;
13611;SDS011;6877;51.436;6.774;2022-09-09T16:31:57;1.52;;;1.42;;
13611;SDS011;6877;51.436;6.774;2022-09-09T16:35:29;2.42;;;1.38;;
13611;SDS011;6877;51.436;6.774;2022-09-09T16:38:11;2.78;;;2.10;;
13611;SDS011;6877;51.436;6.774;2022-09-09T16:40:58;3.17;;;1.83;;
13611;SDS011;6877;51.436;6.774;2022-09-09T16:43:40;4.55;;;1.70;;
13611;SDS011;6877;51.436;6.774;2022-09-09T16:46:29;2.38;;;1.67;;
13611;SDS011;6877;51.436;6.774;2022-09-09T16:48:59;3.13;;;1.85;;
13611;SDS011;6877;51.436;6.774;2022-09-09T16:52:18;4.80;;;2.17;;
13611;SDS011;6877;51.436;6.774;2022-09-09T16:54:31;2.88;;;2.20;;
13611;SDS011;6877;51.436;6.774;2022-09-09T16:57:05;3.55;;;2.17;;
13611;SDS011;6877;51.436;6.774;2022-09-09T16:59:46;3.88;;;2.42;;
13611;SDS011;6877;51.436;6.774;2022-09-09T17:02:41;3.70;;;2.08;;
13611;SDS011;6877;51.436;6.774;2022-09-09T17:05:40;9.10;;;3.35;;
13611;SDS011;6877;51.436;6.774;2022-09-09T17:08:13;4.65;;;2.55;;
13611;SDS011;6877;51.436;6.774;2022-09-09T17:10:41;3.50;;;2.65;;
13611;SDS011;6877;51.436;6.774;2022-09-09T17:13:20;3.25;;;2.28;;
13611;SDS011;6877;51.436;6.774;2022-09-09T17:15:55;5.22;;;2.95;;
13611;SDS011;6877;51.436;6.774;2022-09-09T17:18:30;4.25;;;2.95;;
13611;SDS011;6877;51.436;6.774;2022-09-09T17:21:21;2.97;;;2.45;;
13611;SDS011;6877;51.436;6.774;2022-09-09T17:28:04;3.85;;;2.13;;
13611;SDS011;6877;51.436;6.774;2022-09-09T17:30:37;3.70;;;2.45;;
13611;SDS011;6877;51.436;6.774;2022-09-09T17:33:04;5.43;;;2.30;;
13611;SDS011;6877;51.436;6.774;2022-09-09T17:35:43;4.22;;;2.45;;
13611;SDS011;6877;51.436;6.774;2022-09-09T17:38:21;4.72;;;2.25;;
13611;SDS011;6877;51.436;6.774;2022-09-09T17:41:40;5.05;;;2.25;;
13611;SDS011;6877;51.436;6.774;2022-09-09T17:48:08;9.20;;;3.03;;
13611;SDS011;6877;51.436;6.774;2022-09-09T17:50:43;4.18;;;2.72;;
13611;SDS011;6877;51.436;6.774;2022-09-09T18:03:58;4.00;;;3.33;;
13611;SDS011;6877;51.436;6.774;2022-09-09T18:06:53;3.28;;;1.88;;
13611;SDS011;6877;51.436;6.774;2022-09-09T18:10:24;5.05;;;2.45;;
13611;SDS011;6877;51.436;6.774;2022-09-09T18:13:35;10.48;;;2.35;;
13611;SDS011;6877;51.436;6.774;2022-09-09T18:19:07;3.33;;;2.25;;
13611;SDS011;6877;51.436;6.774;2022-09-09T18:22:20;3.03;;;2.72;;
13611;SDS011;6877;51.436;6.774;2022-09-09T18:25:06;3.90;;;2.28;;
13611;SDS011;6877;51.436;6.774;2022-09-09T18:27:38;6.03;;;2.72;;
13611;SDS011;6877;51.436;6.774;2022-09-09T18:30:10;7.07;;;3.33;;
13611;SDS011;6877;51.436;6.774;2022-09-09T18:32:42;7.57;;;2.67;;
13611;SDS011;6877;51.436;6.774;2022-09-09T18:35:15;11.15;;;2.95;;
13611;SDS011;6877;51.436;6.774;2022-09-09T18:37:52;5.85;;;2.85;;
13611;SDS011;6877;51.436;6.774;2022-09-09T18:40:52;5.47;;;3.40;;
13611;SDS011;6877;51.436;6.774;2022-09-09T18:43:51;8.48;;;3.20;;
13611;SDS011;6877;51.436;6.774;2022-09-09T18:46:37;6.22;;;3.78;;
13611;SDS011;6877;51.436;6.774;2022-09-09T18:49:25;9.90;;;4.35;;
13611;SDS011;6877;51.436;6.774;2022-09-09T18:51:57;5.00;;;3.13;;
13611;SDS011;6877;51.436;6.774;2022-09-09T18:54:29;4.72;;;3.40;;
13611;SDS011;6877;51.436;6.774;2022-09-09T18:57:03;9.55;;;3.47;;
13611;SDS011;6877;51.436;6.774;2022-09-09T18:59:35;7.82;;;3.80;;
13611;SDS011;6877;51.436;6.774;2022-09-09T19:02:08;8.05;;;3.75;;
13611;SDS011;6877;51.436;6.774;2022-09-09T19:04:54;6.43;;;3.05;;
13611;SDS011;6877;51.436;6.774;2022-09-09T19:07:39;5.72;;;3.10;;
13611;SDS011;6877;51.436;6.774;2022-09-09T19:10:19;8.93;;;3.40;;
13611;SDS011;6877;51.436;6.774;2022-09-09T19:12:46;7.43;;;3.60;;
13611;SDS011;6877;51.436;6.774;2022-09-09T19:15:36;9.60;;;4.35;;
13611;SDS011;6877;51.436;6.774;2022-09-09T19:21:19;6.30;;;3.47;;
13611;SDS011;6877;51.436;6.774;2022-09-09T19:24:05;11.43;;;4.40;;
13611;SDS011;6877;51.436;6.774;2022-09-09T19:26:44;8.07;;;4.20;;
13611;SDS011;6877;51.436;6.774;2022-09-09T19:29:21;6.75;;;3.65;;
13611;SDS011;6877;51.436;6.774;2022-09-09T19:31:55;13.15;;;3.92;;
13611;SDS011;6877;51.436;6.774;2022-09-09T19:34:41;8.88;;;4.03;;
13611;SDS011;6877;51.436;6.774;2022-09-09T19:37:11;9.13;;;4.10;;
13611;SDS011;6877;51.436;6.774;2022-09-09T19:39:43;9.55;;;4.07;;
13611;SDS011;6877;51.436;6.774;2022-09-09T19:46:12;5.07;;;4.05;;
13611;SDS011;6877;51.436;6.774;2022-09-09T19:49:20;6.38;;;3.45;;
13611;SDS011;6877;51.436;6.774;2022-09-09T19:52:04;8.63;;;3.20;;
13611;SDS011;6877;51.436;6.774;2022-09-09T19:54:36;5.43;;;3.63;;
13611;SDS011;6877;51.436;6.774;2022-09-09T19:57:12;6.60;;;3.63;;
13611;SDS011;6877;51.436;6.774;2022-09-09T19:59:38;7.20;;;4.45;;
13611;SDS011;6877;51.436;6.774;2022-09-09T20:02:11;7.10;;;4.15;;
13611;SDS011;6877;51.436;6.774;2022-09-09T20:05:13;11.13;;;4.30;;
13611;SDS011;6877;51.436;6.774;2022-09-09T20:07:54;7.22;;;3.97;;
13611;SDS011;6877;51.436;6.774;2022-09-09T20:10:21;9.20;;;5.30;;
13611;SDS011;6877;51.436;6.774;2022-09-09T20:12:53;5.90;;;4.38;;
13611;SDS011;6877;51.436;6.774;2022-09-09T20:15:27;14.57;;;5.18;;
13611;SDS011;6877;51.436;6.774;2022-09-09T20:17:56;9.77;;;4.75;;
13611;SDS011;6877;51.436;6.774;2022-09-09T20:20:43;9.77;;;3.97;;
13611;SDS011;6877;51.436;6.774;2022-09-09T20:23:21;9.00;;;4.15;;
13611;SDS011;6877;51.436;6.774;2022-09-09T20:25:55;6.30;;;4.07;;
13611;SDS011;6877;51.436;6.774;2022-09-09T20:32:26;13.50;;;6.22;;
13611;SDS011;6877;51.436;6.774;2022-09-09T20:35:09;10.70;;;4.45;;
13611;SDS011;6877;51.436;6.774;2022-09-09T20:46:29;9.73;;;4.68;;
13611;SDS011;6877;51.436;6.774;2022-09-09T20:49:47;7.70;;;4.63;;
13611;SDS011;6877;51.436;6.774;2022-09-09T21:02:55;13.07;;;4.88;;
13611;SDS011;6877;51.436;6.774;2022-09-09T21:09:18;7.40;;;4.32;;
13611;SDS011;6877;51.436;6.774;2022-09-09T21:11:48;7.38;;;3.55;;
13611;SDS011;6877;51.436;6.774;2022-09-09T21:14:25;7.32;;;3.15;;
13611;SDS011;6877;51.436;6.774;2022-09-09T21:17:30;4.82;;;2.80;;
13611;SDS011;6877;51.436;6.774;2022-09-09T21:20:06;6.35;;;2.70;;
13611;SDS011;6877;51.436;6.774;2022-09-09T21:22:42;5.15;;;2.50;;
13611;SDS011;6877;51.436;6.774;2022-09-09T21:25:17;3.53;;;2.33;;
13611;SDS011;6877;51.436;6.774;2022-09-09T21:27:50;6.93;;;3.17;;
13611;SDS011;6877;51.436;6.774;2022-09-09T21:30:51;4.65;;;3.15;;
13611;SDS011;6877;51.436;6.774;2022-09-09T21:40:43;7.82;;;2.90;;
13611;SDS011;6877;51.436;6.774;2022-09-09T21:43:31;5.25;;;3.63;;
13611;SDS011;6877;51.436;6.774;2022-09-09T21:46:15;8.32;;;3.72;;
13611;SDS011;6877;51.436;6.774;2022-09-09T21:48:48;9.02;;;3.53;;
13611;SDS011;6877;51.436;6.774;2022-09-09T21:51:21;8.07;;;4.50;;
13611;SDS011;6877;51.436;6.774;2022-09-09T21:54:10;10.48;;;4.22;;
13611;SDS011;6877;51.436;6.774;2022-09-09T21:56:44;7.30;;;3.33;;
13611;SDS011;6877;51.436;6.774;2022-09-09T21:59:19;8.38;;;3.78;;
13611;SDS011;6877;51.436;6.774;2022-09-09T22:01:56;15.52;;;4.85;;
13611;SDS011;6877;51.436;6.774;2022-09-09T22:04:28;12.40;;;3.78;;
13611;SDS011;6877;51.436;6.774;2022-09-09T22:07:09;10.57;;;3.60;;
13611;SDS011;6877;51.436;6.774;2022-09-09T22:16:47;5.75;;;3.55;;
13611;SDS011;6877;51.436;6.774;2022-09-09T22:19:14;10.30;;;3.25;;
13611;SDS011;6877;51.436;6.774;2022-09-09T22:22:42;5.60;;;3.25;;
13611;SDS011;6877;51.436;6.774;2022-09-09T22:25:14;3.92;;;2.75;;
13611;SDS011;6877;51.436;6.774;2022-09-09T22:27:49;9.20;;;2.88;;
13611;SDS011;6877;51.436;6.774;2022-09-09T22:30:44;8.73;;;4.45;;
13611;SDS011;6877;51.436;6.774;2022-09-09T22:33:18;7.97;;;2.72;;
13611;SDS011;6877;51.436;6.774;2022-09-09T22:35:59;7.85;;;3.85;;
13611;SDS011;6877;51.436;6.774;2022-09-09T22:38:40;7.25;;;2.88;;
13611;SDS011;6877;51.436;6.774;2022-09-09T22:41:18;6.38;;;3.35;;
13611;SDS011;6877;51.436;6.774;2022-09-09T22:43:59;12.80;;;3.95;;
13611;SDS011;6877;51.436;6.774;2022-09-09T22:46:31;5.30;;;3.42;;
13611;SDS011;6877;51.436;6.774;2022-09-09T22:49:03;7.75;;;3.30;;
13611;SDS011;6877;51.436;6.774;2022-09-09T22:51:36;5.90;;;3.28;;
13611;SDS011;6877;51.436;6.774;2022-09-09T22:54:10;8.13;;;3.22;;
13611;SDS011;6877;51.436;6.774;2022-09-09T23:00:33;4.28;;;3.45;;
13611;SDS011;6877;51.436;6.774;2022-09-09T23:03:33;5.00;;;4.07;;
13611;SDS011;6877;51.436;6.774;2022-09-09T23:06:36;6.47;;;3.55;;
13611;SDS011;6877;51.436;6.774;2022-09-09T23:09:59;4.25;;;3.00;;
13611;SDS011;6877;51.436;6.774;2022-09-09T23:16:14;4.40;;;3.00;;
13611;SDS011;6877;51.436;6.774;2022-09-09T23:18:49;5.60;;;3.72;;
13611;SDS011;6877;51.436;6.774;2022-09-09T23:21:38;7.15;;;4.07;;
13611;SDS011;6877;51.436;6.774;2022-09-09T23:24:20;6.72;;;3.65;;
13611;SDS011;6877;51.436;6.774;2022-09-09T23:26:51;7.70;;;3.90;;
13611;SDS011;6877;51.436;6.774;2022-09-09T23:29:39;12.13;;;4.18;;
13611;SDS011;6877;51.436;6.774;2022-09-09T23:32:06;7.55;;;3.50;;
13611;SDS011;6877;51.436;6.774;2022-09-09T23:34:38;9.65;;;3.70;;
13611;SDS011;6877;51.436;6.774;2022-09-09T23:37:10;7.93;;;4.28;;
13611;SDS011;6877;51.436;6.774;2022-09-09T23:39:38;15.30;;;4.38;;
13611;SDS011;6877;51.436;6.774;2022-09-09T23:45:30;6.15;;;2.80;;
13611;SDS011;6877;51.436;6.774;2022-09-09T23:48:32;6.63;;;4.18;;
13611;SDS011;6877;51.436;6.774;2022-09-09T23:54:56;8.52;;;3.92;;
